sensor_id;sensor_type;location;lat;lon;timestamp;temperature;humidity
15926;DHT22;8062;53.882;10.642;2023-04-01T00:00:25;9.90;99.90
15926;DHT22;8062;53.882;10.642;2023-04-01T00:01:45;10.00;99.90
15926;DHT22;8062;53.882;10.642;2023-04-01T00:03:04;10.00;99.90
15926;DHT22;8062;53.882;10.642;2023-04-01T00:04:24;10.00;99.90
15926;DHT22;8062;53.882;10.642;2023-04-01T00:05:44;10.00;99.90
15926;DHT22;8062;53.882;10.642;2023-04-01T00:07:04;10.00;99.90
15926;DHT22;8062;53.882;10.642;2023-04-01T00:08:24;10.00;99.90
15926;DHT22;8062;53.882;10.642;2023-04-01T00:09:44;9.90;99.90
15926;DHT22;8062;53.882;10.642;2023-04-01T00:11:03;9.90;99.90
15926;DHT22;8062;53.882;10.642;2023-04-01T00:12:23;9.90;99.90
15926;DHT22;8062;53.882;10.642;2023-04-01T00:13:44;10.00;99.90
15926;DHT22;8062;53.882;10.642;2023-04-01T00:15:06;9.90;99.90
15926;DHT22;8062;53.882;10.642;2023-04-01T00:16:26;10.00;99.90
15926;DHT22;8062;53.882;10.642;2023-04-01T00:17:45;10.00;99.90
15926;DHT22;8062;53.882;10.642;2023-04-01T00:19:05;9.90;99.90
15926;DHT22;8062;53.882;10.642;2023-04-01T00:20:25;9.90;99.90
15926;DHT22;8062;53.882;10.642;2023-04-01T00:21:45;9.90;99.90
15926;DHT22;8062;53.882;10.642;2023-04-01T00:23:05;9.90;99.90
15926;DHT22;8062;53.882;10.642;2023-04-01T00:24:25;9.90;99.90
15926;DHT22;8062;53.882;10.642;2023-04-01T00:25:45;9.90;99.90
15926;DHT22;8062;53.882;10.642;2023-04-01T00:27:07;9.90;99.90
15926;DHT22;8062;53.882;10.642;2023-04-01T00:28:27;9.90;99.90
15926;DHT22;8062;53.882;10.642;2023-04-01T00:29:47;9.80;99.90
15926;DHT22;8062;53.882;10.642;2023-04-01T00:31:08;9.80;99.90
15926;DHT22;8062;53.882;10.642;2023-04-01T00:32:29;9.80;99.90
15926;DHT22;8062;53.882;10.642;2023-04-01T00:33:51;9.80;99.90
15926;DHT22;8062;53.882;10.642;2023-04-01T00:35:11;9.80;99.90
15926;DHT22;8062;53.882;10.642;2023-04-01T00:36:32;9.80;99.90
15926;DHT22;8062;53.882;10.642;2023-04-01T00:37:52;9.80;99.90
15926;DHT22;8062;53.882;10.642;2023-04-01T00:39:11;9.80;99.90
15926;DHT22;8062;53.882;10.642;2023-04-01T00:40:35;9.80;99.90
15926;DHT22;8062;53.882;10.642;2023-04-01T00:41:54;9.70;99.90
15926;DHT22;8062;53.882;10.642;2023-04-01T00:43:20;9.80;99.90
15926;DHT22;8062;53.882;10.642;2023-04-01T00:44:40;9.70;99.90
15926;DHT22;8062;53.882;10.642;2023-04-01T00:46:00;9.70;99.90
15926;DHT22;8062;53.882;10.642;2023-04-01T00:47:20;9.70;99.90
15926;DHT22;8062;53.882;10.642;2023-04-01T00:48:45;9.70;99.90
15926;DHT22;8062;53.882;10.642;2023-04-01T00:50:06;9.70;99.90
15926;DHT22;8062;53.882;10.642;2023-04-01T00:51:28;9.70;99.90
15926;DHT22;8062;53.882;10.642;2023-04-01T00:52:48;9.70;99.90
15926;DHT22;8062;53.882;10.642;2023-04-01T00:54:08;9.70;99.90
15926;DHT22;8062;53.882;10.642;2023-04-01T00:55:32;9.70;99.90
15926;DHT22;8062;53.882;10.642;2023-04-01T00:57:15;9.70;99.90
15926;DHT22;8062;53.882;10.642;2023-04-01T00:58:41;9.70;99.90
15926;DHT22;8062;53.882;10.642;2023-04-01T01:00:05;9.70;99.90
15926;DHT22;8062;53.882;10.642;2023-04-01T01:01:28;9.70;99.90
15926;DHT22;8062;53.882;10.642;2023-04-01T01:02:49;9.70;99.90
15926;DHT22;8062;53.882;10.642;2023-04-01T01:04:22;9.60;99.90
15926;DHT22;8062;53.882;10.642;2023-04-01T01:11:00;9.60;99.90
15926;DHT22;8062;53.882;10.642;2023-04-01T01:14:08;9.60;99.90
15926;DHT22;8062;53.882;10.642;2023-04-01T01:15:56;9.60;99.90
15926;DHT22;8062;53.882;10.642;2023-04-01T01:23:03;9.50;99.90
15926;DHT22;8062;53.882;10.642;2023-04-01T01:27:14;9.50;99.90
15926;DHT22;8062;53.882;10.642;2023-04-01T01:30:20;9.50;99.90
15926;DHT22;8062;53.882;10.642;2023-04-01T01:37:10;9.50;99.90
15926;DHT22;8062;53.882;10.642;2023-04-01T01:38:33;9.50;99.90
15926;DHT22;8062;53.882;10.642;2023-04-01T01:40:03;9.50;99.90
15926;DHT22;8062;53.882;10.642;2023-04-01T01:41:26;9.50;99.90
15926;DHT22;8062;53.882;10.642;2023-04-01T01:42:50;9.60;99.90
15926;DHT22;8062;53.882;10.642;2023-04-01T01:44:12;9.50;99.90
15926;DHT22;8062;53.882;10.642;2023-04-01T01:45:35;9.50;99.90
15926;DHT22;8062;53.882;10.642;2023-04-01T01:46:55;9.50;99.90
15926;DHT22;8062;53.882;10.642;2023-04-01T01:48:16;9.50;99.90
15926;DHT22;8062;53.882;10.642;2023-04-01T01:49:36;9.50;99.90
15926;DHT22;8062;53.882;10.642;2023-04-01T01:50:58;9.50;99.90
15926;DHT22;8062;53.882;10.642;2023-04-01T01:52:19;9.50;99.90
15926;DHT22;8062;53.882;10.642;2023-04-01T01:53:38;9.50;99.90
15926;DHT22;8062;53.882;10.642;2023-04-01T01:54:58;9.50;99.90
15926;DHT22;8062;53.882;10.642;2023-04-01T01:56:26;9.50;99.90
15926;DHT22;8062;53.882;10.642;2023-04-01T01:57:47;9.50;99.90
15926;DHT22;8062;53.882;10.642;2023-04-01T01:59:11;9.50;99.90
15926;DHT22;8062;53.882;10.642;2023-04-01T02:00:34;9.50;99.90
15926;DHT22;8062;53.882;10.642;2023-04-01T02:01:56;9.50;99.90
15926;DHT22;8062;53.882;10.642;2023-04-01T02:03:17;9.50;99.90
15926;DHT22;8062;53.882;10.642;2023-04-01T02:04:41;9.50;99.90
15926;DHT22;8062;53.882;10.642;2023-04-01T02:06:05;9.50;99.90
15926;DHT22;8062;53.882;10.642;2023-04-01T02:07:30;9.40;99.90
15926;DHT22;8062;53.882;10.642;2023-04-01T02:08:57;9.40;99.90
15926;DHT22;8062;53.882;10.642;2023-04-01T02:10:19;9.30;99.90
15926;DHT22;8062;53.882;10.642;2023-04-01T02:11:48;9.20;99.90
15926;DHT22;8062;53.882;10.642;2023-04-01T02:13:17;9.20;99.90
15926;DHT22;8062;53.882;10.642;2023-04-01T02:14:49;9.10;99.90
15926;DHT22;8062;53.882;10.642;2023-04-01T02:16:31;9.00;99.90
15926;DHT22;8062;53.882;10.642;2023-04-01T02:17:54;8.90;99.90
15926;DHT22;8062;53.882;10.642;2023-04-01T02:19:17;8.90;99.90
15926;DHT22;8062;53.882;10.642;2023-04-01T02:20:43;8.80;99.90
15926;DHT22;8062;53.882;10.642;2023-04-01T02:22:06;8.70;99.90
15926;DHT22;8062;53.882;10.642;2023-04-01T02:23:28;8.70;99.90
15926;DHT22;8062;53.882;10.642;2023-04-01T02:24:50;8.70;99.90
15926;DHT22;8062;53.882;10.642;2023-04-01T02:26:11;8.60;99.90
15926;DHT22;8062;53.882;10.642;2023-04-01T02:27:31;8.60;99.90
15926;DHT22;8062;53.882;10.642;2023-04-01T02:28:54;8.60;99.90
15926;DHT22;8062;53.882;10.642;2023-04-01T02:30:16;8.50;99.90
15926;DHT22;8062;53.882;10.642;2023-04-01T02:31:36;8.50;99.90
15926;DHT22;8062;53.882;10.642;2023-04-01T02:32:57;8.40;99.90
15926;DHT22;8062;53.882;10.642;2023-04-01T02:34:18;8.40;99.90
15926;DHT22;8062;53.882;10.642;2023-04-01T02:35:37;8.30;99.90
15926;DHT22;8062;53.882;10.642;2023-04-01T02:36:57;8.30;99.90
15926;DHT22;8062;53.882;10.642;2023-04-01T02:38:17;8.30;99.90
15926;DHT22;8062;53.882;10.642;2023-04-01T02:39:36;8.30;99.90
15926;DHT22;8062;53.882;10.642;2023-04-01T02:40:58;8.30;99.90
15926;DHT22;8062;53.882;10.642;2023-04-01T02:42:18;8.20;99.90
15926;DHT22;8062;53.882;10.642;2023-04-01T02:43:38;8.30;99.90
15926;DHT22;8062;53.882;10.642;2023-04-01T02:44:58;8.20;99.90
15926;DHT22;8062;53.882;10.642;2023-04-01T02:46:17;8.20;99.90
15926;DHT22;8062;53.882;10.642;2023-04-01T02:47:38;8.10;99.90
15926;DHT22;8062;53.882;10.642;2023-04-01T02:48:58;8.10;99.90
15926;DHT22;8062;53.882;10.642;2023-04-01T02:50:17;8.10;99.90
15926;DHT22;8062;53.882;10.642;2023-04-01T02:51:37;8.00;99.90
15926;DHT22;8062;53.882;10.642;2023-04-01T02:52:57;8.00;99.90
15926;DHT22;8062;53.882;10.642;2023-04-01T02:54:17;8.00;99.90
15926;DHT22;8062;53.882;10.642;2023-04-01T02:55:37;7.90;99.90
15926;DHT22;8062;53.882;10.642;2023-04-01T02:56:57;7.90;99.90
15926;DHT22;8062;53.882;10.642;2023-04-01T02:58:17;7.80;99.90
15926;DHT22;8062;53.882;10.642;2023-04-01T02:59:37;7.80;99.90
15926;DHT22;8062;53.882;10.642;2023-04-01T03:00:56;7.80;99.90
15926;DHT22;8062;53.882;10.642;2023-04-01T03:02:16;7.80;99.90
15926;DHT22;8062;53.882;10.642;2023-04-01T03:03:36;7.70;99.90
15926;DHT22;8062;53.882;10.642;2023-04-01T03:04:55;7.70;99.90
15926;DHT22;8062;53.882;10.642;2023-04-01T03:06:16;7.70;99.90
15926;DHT22;8062;53.882;10.642;2023-04-01T03:07:35;7.70;99.90
15926;DHT22;8062;53.882;10.642;2023-04-01T03:08:55;7.60;99.90
15926;DHT22;8062;53.882;10.642;2023-04-01T03:10:15;7.60;99.90
15926;DHT22;8062;53.882;10.642;2023-04-01T03:11:35;7.50;99.90
15926;DHT22;8062;53.882;10.642;2023-04-01T03:12:55;7.60;99.90
15926;DHT22;8062;53.882;10.642;2023-04-01T03:14:14;7.50;99.90
15926;DHT22;8062;53.882;10.642;2023-04-01T03:15:34;7.50;99.90
15926;DHT22;8062;53.882;10.642;2023-04-01T03:16:54;7.50;99.90
15926;DHT22;8062;53.882;10.642;2023-04-01T03:18:14;7.40;99.90
15926;DHT22;8062;53.882;10.642;2023-04-01T03:19:33;7.40;99.90
15926;DHT22;8062;53.882;10.642;2023-04-01T03:21:16;7.40;99.90
15926;DHT22;8062;53.882;10.642;2023-04-01T03:22:36;7.40;99.90
15926;DHT22;8062;53.882;10.642;2023-04-01T03:23:56;7.30;99.90
15926;DHT22;8062;53.882;10.642;2023-04-01T03:25:18;7.30;99.90
15926;DHT22;8062;53.882;10.642;2023-04-01T03:26:37;7.20;99.90
15926;DHT22;8062;53.882;10.642;2023-04-01T03:27:57;7.20;99.90
15926;DHT22;8062;53.882;10.642;2023-04-01T03:29:18;7.10;99.90
15926;DHT22;8062;53.882;10.642;2023-04-01T03:30:39;7.10;99.90
15926;DHT22;8062;53.882;10.642;2023-04-01T03:31:59;7.10;99.90
15926;DHT22;8062;53.882;10.642;2023-04-01T03:33:18;7.00;99.90
15926;DHT22;8062;53.882;10.642;2023-04-01T03:34:38;7.00;99.90
15926;DHT22;8062;53.882;10.642;2023-04-01T03:35:58;7.00;99.90
15926;DHT22;8062;53.882;10.642;2023-04-01T03:37:18;7.00;99.90
15926;DHT22;8062;53.882;10.642;2023-04-01T03:38:38;7.00;99.90
15926;DHT22;8062;53.882;10.642;2023-04-01T03:39:58;6.90;99.90
15926;DHT22;8062;53.882;10.642;2023-04-01T03:41:18;6.90;99.90
15926;DHT22;8062;53.882;10.642;2023-04-01T03:42:37;6.90;99.90
15926;DHT22;8062;53.882;10.642;2023-04-01T03:43:58;6.90;99.90
15926;DHT22;8062;53.882;10.642;2023-04-01T03:45:18;6.90;99.90
15926;DHT22;8062;53.882;10.642;2023-04-01T03:46:38;6.90;99.90
15926;DHT22;8062;53.882;10.642;2023-04-01T03:47:58;6.90;99.90
15926;DHT22;8062;53.882;10.642;2023-04-01T03:49:17;6.80;99.90
15926;DHT22;8062;53.882;10.642;2023-04-01T03:50:37;6.80;99.90
15926;DHT22;8062;53.882;10.642;2023-04-01T03:51:56;6.80;99.90
15926;DHT22;8062;53.882;10.642;2023-04-01T03:53:16;6.80;99.90
15926;DHT22;8062;53.882;10.642;2023-04-01T03:54:39;6.70;99.90
15926;DHT22;8062;53.882;10.642;2023-04-01T03:56:03;6.70;99.90
15926;DHT22;8062;53.882;10.642;2023-04-01T03:57:23;6.70;99.90
15926;DHT22;8062;53.882;10.642;2023-04-01T03:58:43;6.70;99.90
15926;DHT22;8062;53.882;10.642;2023-04-01T04:00:03;6.70;99.90
15926;DHT22;8062;53.882;10.642;2023-04-01T04:01:33;6.70;99.90
15926;DHT22;8062;53.882;10.642;2023-04-01T04:02:54;6.70;99.90
15926;DHT22;8062;53.882;10.642;2023-04-01T04:04:20;6.70;99.90
15926;DHT22;8062;53.882;10.642;2023-04-01T04:05:47;6.60;99.90
15926;DHT22;8062;53.882;10.642;2023-04-01T04:07:08;6.60;99.90
15926;DHT22;8062;53.882;10.642;2023-04-01T04:08:48;6.60;99.90
15926;DHT22;8062;53.882;10.642;2023-04-01T04:10:08;6.60;99.90
15926;DHT22;8062;53.882;10.642;2023-04-01T04:11:30;6.60;99.90
15926;DHT22;8062;53.882;10.642;2023-04-01T04:12:51;6.60;99.90
15926;DHT22;8062;53.882;10.642;2023-04-01T04:14:13;6.60;99.90
15926;DHT22;8062;53.882;10.642;2023-04-01T04:15:33;6.50;99.90
15926;DHT22;8062;53.882;10.642;2023-04-01T04:16:52;6.60;99.90
15926;DHT22;8062;53.882;10.642;2023-04-01T04:18:12;6.50;99.90
15926;DHT22;8062;53.882;10.642;2023-04-01T04:19:32;6.50;99.90
15926;DHT22;8062;53.882;10.642;2023-04-01T04:20:55;6.50;99.90
15926;DHT22;8062;53.882;10.642;2023-04-01T04:22:15;6.40;99.90
15926;DHT22;8062;53.882;10.642;2023-04-01T04:23:34;6.40;99.90
15926;DHT22;8062;53.882;10.642;2023-04-01T04:24:55;6.40;99.90
15926;DHT22;8062;53.882;10.642;2023-04-01T04:26:15;6.40;99.90
15926;DHT22;8062;53.882;10.642;2023-04-01T04:27:35;6.40;99.90
15926;DHT22;8062;53.882;10.642;2023-04-01T04:29:01;6.30;99.90
15926;DHT22;8062;53.882;10.642;2023-04-01T04:30:21;6.30;99.90
15926;DHT22;8062;53.882;10.642;2023-04-01T04:31:40;6.30;99.90
15926;DHT22;8062;53.882;10.642;2023-04-01T04:33:00;6.20;99.90
15926;DHT22;8062;53.882;10.642;2023-04-01T04:34:20;6.20;99.90
15926;DHT22;8062;53.882;10.642;2023-04-01T04:35:41;6.20;99.90
15926;DHT22;8062;53.882;10.642;2023-04-01T04:37:00;6.20;99.90
15926;DHT22;8062;53.882;10.642;2023-04-01T04:38:25;6.10;99.90
15926;DHT22;8062;53.882;10.642;2023-04-01T04:39:45;6.10;99.90
15926;DHT22;8062;53.882;10.642;2023-04-01T04:41:15;6.10;99.90
15926;DHT22;8062;53.882;10.642;2023-04-01T04:42:39;6.00;99.90
15926;DHT22;8062;53.882;10.642;2023-04-01T04:44:04;6.00;99.90
15926;DHT22;8062;53.882;10.642;2023-04-01T04:45:24;6.00;99.90
15926;DHT22;8062;53.882;10.642;2023-04-01T04:46:48;6.00;99.90
15926;DHT22;8062;53.882;10.642;2023-04-01T04:48:13;6.00;99.90
15926;DHT22;8062;53.882;10.642;2023-04-01T04:49:38;6.00;99.90
15926;DHT22;8062;53.882;10.642;2023-04-01T04:51:02;6.00;99.90
15926;DHT22;8062;53.882;10.642;2023-04-01T04:52:21;6.00;99.90
15926;DHT22;8062;53.882;10.642;2023-04-01T04:53:41;6.00;99.90
15926;DHT22;8062;53.882;10.642;2023-04-01T04:55:00;6.00;99.90
15926;DHT22;8062;53.882;10.642;2023-04-01T04:56:21;5.90;99.90
15926;DHT22;8062;53.882;10.642;2023-04-01T04:57:47;5.90;99.90
15926;DHT22;8062;53.882;10.642;2023-04-01T04:59:07;5.90;99.90
15926;DHT22;8062;53.882;10.642;2023-04-01T05:00:36;5.90;99.90
15926;DHT22;8062;53.882;10.642;2023-04-01T05:01:59;5.90;99.90
15926;DHT22;8062;53.882;10.642;2023-04-01T05:03:19;5.90;99.90
15926;DHT22;8062;53.882;10.642;2023-04-01T05:04:38;5.90;99.90
15926;DHT22;8062;53.882;10.642;2023-04-01T05:06:02;5.90;99.90
15926;DHT22;8062;53.882;10.642;2023-04-01T05:07:22;5.90;99.90
15926;DHT22;8062;53.882;10.642;2023-04-01T05:08:42;5.90;99.90
15926;DHT22;8062;53.882;10.642;2023-04-01T05:10:03;5.90;99.90
15926;DHT22;8062;53.882;10.642;2023-04-01T05:11:22;5.90;99.90
15926;DHT22;8062;53.882;10.642;2023-04-01T05:12:44;5.90;99.90
15926;DHT22;8062;53.882;10.642;2023-04-01T05:14:17;5.90;99.90
15926;DHT22;8062;53.882;10.642;2023-04-01T05:15:45;5.80;99.90
15926;DHT22;8062;53.882;10.642;2023-04-01T05:17:09;5.80;99.90
15926;DHT22;8062;53.882;10.642;2023-04-01T05:18:29;5.80;99.90
15926;DHT22;8062;53.882;10.642;2023-04-01T05:19:48;5.80;99.90
15926;DHT22;8062;53.882;10.642;2023-04-01T05:21:09;5.80;99.90
15926;DHT22;8062;53.882;10.642;2023-04-01T05:22:29;5.80;99.90
15926;DHT22;8062;53.882;10.642;2023-04-01T05:23:49;5.80;99.90
15926;DHT22;8062;53.882;10.642;2023-04-01T05:25:09;5.80;99.90
15926;DHT22;8062;53.882;10.642;2023-04-01T05:26:28;5.80;99.90
15926;DHT22;8062;53.882;10.642;2023-04-01T05:27:48;5.80;99.90
15926;DHT22;8062;53.882;10.642;2023-04-01T05:29:07;5.80;99.90
15926;DHT22;8062;53.882;10.642;2023-04-01T05:30:27;5.80;99.90
15926;DHT22;8062;53.882;10.642;2023-04-01T05:31:53;5.70;99.90
15926;DHT22;8062;53.882;10.642;2023-04-01T05:33:13;5.70;99.90
15926;DHT22;8062;53.882;10.642;2023-04-01T05:34:32;5.70;99.90
15926;DHT22;8062;53.882;10.642;2023-04-01T05:35:52;5.60;99.90
15926;DHT22;8062;53.882;10.642;2023-04-01T05:37:12;5.60;99.90
15926;DHT22;8062;53.882;10.642;2023-04-01T05:38:32;5.60;99.90
15926;DHT22;8062;53.882;10.642;2023-04-01T05:39:51;5.60;99.90
15926;DHT22;8062;53.882;10.642;2023-04-01T05:41:12;5.60;99.90
15926;DHT22;8062;53.882;10.642;2023-04-01T05:42:35;5.60;99.90
15926;DHT22;8062;53.882;10.642;2023-04-01T05:43:55;5.60;99.90
15926;DHT22;8062;53.882;10.642;2023-04-01T05:45:34;5.50;99.90
15926;DHT22;8062;53.882;10.642;2023-04-01T05:46:53;5.50;99.90
15926;DHT22;8062;53.882;10.642;2023-04-01T05:48:15;5.50;99.90
15926;DHT22;8062;53.882;10.642;2023-04-01T05:49:35;5.50;99.90
15926;DHT22;8062;53.882;10.642;2023-04-01T05:50:56;5.50;99.90
15926;DHT22;8062;53.882;10.642;2023-04-01T05:52:16;5.50;99.90
15926;DHT22;8062;53.882;10.642;2023-04-01T05:53:36;5.50;99.90
15926;DHT22;8062;53.882;10.642;2023-04-01T05:54:56;5.50;99.90
15926;DHT22;8062;53.882;10.642;2023-04-01T05:56:16;5.50;99.90
15926;DHT22;8062;53.882;10.642;2023-04-01T05:57:41;5.50;99.90
15926;DHT22;8062;53.882;10.642;2023-04-01T05:59:00;5.50;99.90
15926;DHT22;8062;53.882;10.642;2023-04-01T06:00:20;5.50;99.90
15926;DHT22;8062;53.882;10.642;2023-04-01T06:01:41;5.50;99.90
15926;DHT22;8062;53.882;10.642;2023-04-01T06:03:01;5.60;99.90
15926;DHT22;8062;53.882;10.642;2023-04-01T06:04:21;5.50;99.90
15926;DHT22;8062;53.882;10.642;2023-04-01T06:05:42;5.50;99.90
15926;DHT22;8062;53.882;10.642;2023-04-01T06:07:10;5.50;99.90
15926;DHT22;8062;53.882;10.642;2023-04-01T06:08:31;5.50;99.90
15926;DHT22;8062;53.882;10.642;2023-04-01T06:09:50;5.50;99.90
15926;DHT22;8062;53.882;10.642;2023-04-01T06:12:43;5.50;99.90
15926;DHT22;8062;53.882;10.642;2023-04-01T06:15:51;5.40;99.90
15926;DHT22;8062;53.882;10.642;2023-04-01T06:21:05;5.40;99.90
15926;DHT22;8062;53.882;10.642;2023-04-01T06:22:42;5.40;99.90
15926;DHT22;8062;53.882;10.642;2023-04-01T06:24:07;5.40;99.90
15926;DHT22;8062;53.882;10.642;2023-04-01T06:33:36;5.40;99.90
15926;DHT22;8062;53.882;10.642;2023-04-01T06:40:50;5.30;99.90
15926;DHT22;8062;53.882;10.642;2023-04-01T06:42:38;5.30;99.90
15926;DHT22;8062;53.882;10.642;2023-04-01T06:44:24;5.30;99.90
15926;DHT22;8062;53.882;10.642;2023-04-01T06:46:20;5.30;99.90
15926;DHT22;8062;53.882;10.642;2023-04-01T06:50:26;5.30;99.90
15926;DHT22;8062;53.882;10.642;2023-04-01T06:54:32;5.40;99.90
15926;DHT22;8062;53.882;10.642;2023-04-01T06:56:00;5.40;99.90
15926;DHT22;8062;53.882;10.642;2023-04-01T06:57:58;5.50;99.90
15926;DHT22;8062;53.882;10.642;2023-04-01T06:59:22;5.40;99.90
15926;DHT22;8062;53.882;10.642;2023-04-01T07:00:46;5.40;99.90
15926;DHT22;8062;53.882;10.642;2023-04-01T07:04:51;5.40;99.90
15926;DHT22;8062;53.882;10.642;2023-04-01T07:06:23;5.40;99.90
15926;DHT22;8062;53.882;10.642;2023-04-01T07:07:52;5.40;99.90
15926;DHT22;8062;53.882;10.642;2023-04-01T07:09:18;5.40;99.90
15926;DHT22;8062;53.882;10.642;2023-04-01T07:11:03;5.40;99.90
15926;DHT22;8062;53.882;10.642;2023-04-01T07:12:52;5.30;99.90
15926;DHT22;8062;53.882;10.642;2023-04-01T07:14:37;5.40;99.90
15926;DHT22;8062;53.882;10.642;2023-04-01T07:17:39;5.40;99.90
15926;DHT22;8062;53.882;10.642;2023-04-01T07:20:52;5.30;99.90
15926;DHT22;8062;53.882;10.642;2023-04-01T07:22:40;5.40;99.90
15926;DHT22;8062;53.882;10.642;2023-04-01T07:24:31;5.40;99.90
15926;DHT22;8062;53.882;10.642;2023-04-01T07:26:06;5.50;99.90
15926;DHT22;8062;53.882;10.642;2023-04-01T07:27:48;5.50;99.90
15926;DHT22;8062;53.882;10.642;2023-04-01T07:29:13;5.50;99.90
15926;DHT22;8062;53.882;10.642;2023-04-01T07:32:36;5.50;99.90
15926;DHT22;8062;53.882;10.642;2023-04-01T07:35:52;5.50;99.90
15926;DHT22;8062;53.882;10.642;2023-04-01T07:37:22;5.50;99.90
15926;DHT22;8062;53.882;10.642;2023-04-01T07:42:24;5.50;99.90
15926;DHT22;8062;53.882;10.642;2023-04-01T07:45:36;5.40;99.90
15926;DHT22;8062;53.882;10.642;2023-04-01T07:47:17;5.30;99.90
15926;DHT22;8062;53.882;10.642;2023-04-01T07:50:29;5.40;99.90
15926;DHT22;8062;53.882;10.642;2023-04-01T07:58:52;5.50;99.90
15926;DHT22;8062;53.882;10.642;2023-04-01T08:00:47;5.50;99.90
15926;DHT22;8062;53.882;10.642;2023-04-01T08:02:34;5.50;99.90
15926;DHT22;8062;53.882;10.642;2023-04-01T08:04:21;5.50;99.90
15926;DHT22;8062;53.882;10.642;2023-04-01T08:07:25;5.50;99.90
15926;DHT22;8062;53.882;10.642;2023-04-01T08:11:23;5.40;99.90
15926;DHT22;8062;53.882;10.642;2023-04-01T08:13:26;5.40;99.90
15926;DHT22;8062;53.882;10.642;2023-04-01T08:15:37;5.50;99.90
15926;DHT22;8062;53.882;10.642;2023-04-01T08:17:55;5.50;99.90
15926;DHT22;8062;53.882;10.642;2023-04-01T08:19:21;5.50;99.90
15926;DHT22;8062;53.882;10.642;2023-04-01T08:20:59;5.50;99.90
15926;DHT22;8062;53.882;10.642;2023-04-01T08:22:29;5.50;99.90
15926;DHT22;8062;53.882;10.642;2023-04-01T08:23:55;5.50;99.90
15926;DHT22;8062;53.882;10.642;2023-04-01T08:25:20;5.50;99.90
15926;DHT22;8062;53.882;10.642;2023-04-01T08:26:45;5.50;99.90
15926;DHT22;8062;53.882;10.642;2023-04-01T08:28:15;5.50;99.90
15926;DHT22;8062;53.882;10.642;2023-04-01T08:29:49;5.50;99.90
15926;DHT22;8062;53.882;10.642;2023-04-01T08:34:47;5.50;99.90
15926;DHT22;8062;53.882;10.642;2023-04-01T08:36:35;5.50;99.90
15926;DHT22;8062;53.882;10.642;2023-04-01T08:38:12;5.50;99.90
15926;DHT22;8062;53.882;10.642;2023-04-01T08:39:36;5.60;99.90
15926;DHT22;8062;53.882;10.642;2023-04-01T08:41:01;5.60;99.90
15926;DHT22;8062;53.882;10.642;2023-04-01T08:43:05;5.60;99.90
15926;DHT22;8062;53.882;10.642;2023-04-01T08:46:43;5.60;99.90
15926;DHT22;8062;53.882;10.642;2023-04-01T08:49:41;5.70;99.90
15926;DHT22;8062;53.882;10.642;2023-04-01T08:51:47;5.70;99.90
15926;DHT22;8062;53.882;10.642;2023-04-01T08:53:35;5.70;99.90
15926;DHT22;8062;53.882;10.642;2023-04-01T08:57:00;5.70;99.90
15926;DHT22;8062;53.882;10.642;2023-04-01T09:00:51;5.80;99.90
15926;DHT22;8062;53.882;10.642;2023-04-01T09:04:47;5.80;99.90
15926;DHT22;8062;53.882;10.642;2023-04-01T09:08:14;5.90;99.90
15926;DHT22;8062;53.882;10.642;2023-04-01T09:11:08;5.80;99.90
15926;DHT22;8062;53.882;10.642;2023-04-01T09:17:41;5.70;99.90
15926;DHT22;8062;53.882;10.642;2023-04-01T09:27:27;5.70;99.90
15926;DHT22;8062;53.882;10.642;2023-04-01T09:31:17;5.80;99.90
15926;DHT22;8062;53.882;10.642;2023-04-01T09:34:53;5.60;99.90
15926;DHT22;8062;53.882;10.642;2023-04-01T09:51:32;5.60;99.90
15926;DHT22;8062;53.882;10.642;2023-04-01T09:53:07;5.70;99.90
15926;DHT22;8062;53.882;10.642;2023-04-01T09:58:06;5.70;99.90
15926;DHT22;8062;53.882;10.642;2023-04-01T10:06:57;5.70;99.90
15926;DHT22;8062;53.882;10.642;2023-04-01T10:15:45;5.50;99.90
15926;DHT22;8062;53.882;10.642;2023-04-01T10:19:39;5.50;99.90
15926;DHT22;8062;53.882;10.642;2023-04-01T10:23:18;5.40;99.90
15926;DHT22;8062;53.882;10.642;2023-04-01T10:35:45;5.30;99.90
15926;DHT22;8062;53.882;10.642;2023-04-01T10:37:34;5.40;99.90
15926;DHT22;8062;53.882;10.642;2023-04-01T10:45:51;5.40;99.90
15926;DHT22;8062;53.882;10.642;2023-04-01T10:51:29;5.30;99.90
15926;DHT22;8062;53.882;10.642;2023-04-01T10:53:34;5.30;99.90
15926;DHT22;8062;53.882;10.642;2023-04-01T10:55:44;5.30;99.90
15926;DHT22;8062;53.882;10.642;2023-04-01T11:08:12;5.20;99.90
15926;DHT22;8062;53.882;10.642;2023-04-01T11:20:45;5.20;99.90
15926;DHT22;8062;53.882;10.642;2023-04-01T11:22:28;5.30;99.90
15926;DHT22;8062;53.882;10.642;2023-04-01T11:28:36;5.30;99.90
15926;DHT22;8062;53.882;10.642;2023-04-01T11:32:25;5.30;99.90
15926;DHT22;8062;53.882;10.642;2023-04-01T11:34:19;5.20;99.90
15926;DHT22;8062;53.882;10.642;2023-04-01T11:44:25;5.20;99.90
15926;DHT22;8062;53.882;10.642;2023-04-01T11:45:58;5.10;99.90
15926;DHT22;8062;53.882;10.642;2023-04-01T11:47:47;5.10;99.90
15926;DHT22;8062;53.882;10.642;2023-04-01T11:51:30;5.20;99.90
15926;DHT22;8062;53.882;10.642;2023-04-01T11:53:01;5.20;99.90
15926;DHT22;8062;53.882;10.642;2023-04-01T11:57:09;5.10;99.90
15926;DHT22;8062;53.882;10.642;2023-04-01T11:59:50;5.10;99.90
15926;DHT22;8062;53.882;10.642;2023-04-01T12:01:25;5.10;99.90
15926;DHT22;8062;53.882;10.642;2023-04-01T12:05:25;5.20;99.90
15926;DHT22;8062;53.882;10.642;2023-04-01T12:08:57;5.00;99.90
15926;DHT22;8062;53.882;10.642;2023-04-01T12:10:21;5.00;99.90
15926;DHT22;8062;53.882;10.642;2023-04-01T12:12:11;4.90;99.90
15926;DHT22;8062;53.882;10.642;2023-04-01T12:14:08;4.90;99.90
15926;DHT22;8062;53.882;10.642;2023-04-01T12:19:15;4.90;99.90
15926;DHT22;8062;53.882;10.642;2023-04-01T12:20:57;5.10;99.90
15926;DHT22;8062;53.882;10.642;2023-04-01T12:30:56;5.10;99.90
15926;DHT22;8062;53.882;10.642;2023-04-01T12:32:41;5.10;99.90
15926;DHT22;8062;53.882;10.642;2023-04-01T12:39:26;4.90;99.90
15926;DHT22;8062;53.882;10.642;2023-04-01T12:44:33;5.00;99.90
15926;DHT22;8062;53.882;10.642;2023-04-01T12:49:40;4.80;99.90
15926;DHT22;8062;53.882;10.642;2023-04-01T12:55:52;4.90;99.90
15926;DHT22;8062;53.882;10.642;2023-04-01T12:57:45;4.90;99.90
15926;DHT22;8062;53.882;10.642;2023-04-01T12:59:32;4.90;99.90
15926;DHT22;8062;53.882;10.642;2023-04-01T13:05:10;5.00;99.90
15926;DHT22;8062;53.882;10.642;2023-04-01T13:08:36;5.00;99.90
15926;DHT22;8062;53.882;10.642;2023-04-01T13:10:12;5.00;99.90
15926;DHT22;8062;53.882;10.642;2023-04-01T13:12:19;5.10;99.90
15926;DHT22;8062;53.882;10.642;2023-04-01T13:15:31;5.10;99.90
15926;DHT22;8062;53.882;10.642;2023-04-01T13:19:58;5.10;99.90
15926;DHT22;8062;53.882;10.642;2023-04-01T13:23:14;5.20;99.90
15926;DHT22;8062;53.882;10.642;2023-04-01T13:24:50;5.20;99.90
15926;DHT22;8062;53.882;10.642;2023-04-01T13:27:54;5.10;99.90
15926;DHT22;8062;53.882;10.642;2023-04-01T13:34:13;5.00;99.90
15926;DHT22;8062;53.882;10.642;2023-04-01T13:37:29;5.10;99.90
15926;DHT22;8062;53.882;10.642;2023-04-01T13:42:23;5.10;99.90
15926;DHT22;8062;53.882;10.642;2023-04-01T13:50:25;5.20;99.90
15926;DHT22;8062;53.882;10.642;2023-04-01T13:53:40;5.10;99.90
15926;DHT22;8062;53.882;10.642;2023-04-01T13:55:16;5.00;99.90